sensor_id;sensor_type;location;lat;lon;timestamp;temperature;humidity
22491;DHT22;11412;50.802;4.350;2023-04-28T00:01:11;11.40;99.90
22491;DHT22;11412;50.802;4.350;2023-04-28T00:03:36;11.60;99.90
22491;DHT22;11412;50.802;4.350;2023-04-28T00:06:02;11.50;99.90
22491;DHT22;11412;50.802;4.350;2023-04-28T00:08:29;11.40;99.90
22491;DHT22;11412;50.802;4.350;2023-04-28T00:10:54;11.50;99.90
22491;DHT22;11412;50.802;4.350;2023-04-28T00:13:20;11.30;99.90
22491;DHT22;11412;50.802;4.350;2023-04-28T00:15:46;11.20;99.90
22491;DHT22;11412;50.802;4.350;2023-04-28T00:18:11;11.20;99.90
22491;DHT22;11412;50.802;4.350;2023-04-28T00:20:37;11.10;99.90
22491;DHT22;11412;50.802;4.350;2023-04-28T00:23:03;11.10;99.90
22491;DHT22;11412;50.802;4.350;2023-04-28T00:25:29;11.20;99.90
22491;DHT22;11412;50.802;4.350;2023-04-28T00:27:54;11.20;99.90
22491;DHT22;11412;50.802;4.350;2023-04-28T00:30:20;11.00;99.90
22491;DHT22;11412;50.802;4.350;2023-04-28T00:32:46;11.10;99.90
22491;DHT22;11412;50.802;4.350;2023-04-28T00:35:11;11.10;99.90
22491;DHT22;11412;50.802;4.350;2023-04-28T00:37:38;11.10;99.90
22491;DHT22;11412;50.802;4.350;2023-04-28T00:40:04;11.10;99.90
22491;DHT22;11412;50.802;4.350;2023-04-28T00:42:30;11.10;99.90
22491;DHT22;11412;50.802;4.350;2023-04-28T00:44:56;11.10;99.90
22491;DHT22;11412;50.802;4.350;2023-04-28T00:47:22;11.20;99.90
22491;DHT22;11412;50.802;4.350;2023-04-28T00:49:48;11.20;99.90
22491;DHT22;11412;50.802;4.350;2023-04-28T00:52:15;11.00;99.90
22491;DHT22;11412;50.802;4.350;2023-04-28T00:54:40;11.00;99.90
22491;DHT22;11412;50.802;4.350;2023-04-28T00:57:09;11.10;99.90
22491;DHT22;11412;50.802;4.350;2023-04-28T00:59:35;11.10;99.90
22491;DHT22;11412;50.802;4.350;2023-04-28T01:02:01;11.00;99.90
22491;DHT22;11412;50.802;4.350;2023-04-28T01:04:28;10.90;99.90
22491;DHT22;11412;50.802;4.350;2023-04-28T01:06:55;10.80;99.90
22491;DHT22;11412;50.802;4.350;2023-04-28T01:09:21;10.80;99.90
22491;DHT22;11412;50.802;4.350;2023-04-28T01:11:47;10.90;99.90
22491;DHT22;11412;50.802;4.350;2023-04-28T01:14:12;10.90;99.90
22491;DHT22;11412;50.802;4.350;2023-04-28T01:16:38;10.90;99.90
22491;DHT22;11412;50.802;4.350;2023-04-28T01:19:14;10.90;99.90
22491;DHT22;11412;50.802;4.350;2023-04-28T01:21:41;10.90;99.90
22491;DHT22;11412;50.802;4.350;2023-04-28T01:24:07;10.80;99.90
22491;DHT22;11412;50.802;4.350;2023-04-28T01:26:33;10.90;99.90
22491;DHT22;11412;50.802;4.350;2023-04-28T01:28:58;10.80;99.90
22491;DHT22;11412;50.802;4.350;2023-04-28T01:31:24;10.90;99.90
22491;DHT22;11412;50.802;4.350;2023-04-28T01:33:50;10.80;99.90
22491;DHT22;11412;50.802;4.350;2023-04-28T01:36:16;10.80;99.90
22491;DHT22;11412;50.802;4.350;2023-04-28T01:38:41;10.70;99.90
22491;DHT22;11412;50.802;4.350;2023-04-28T01:41:07;10.90;99.90
22491;DHT22;11412;50.802;4.350;2023-04-28T01:43:33;10.90;99.90
22491;DHT22;11412;50.802;4.350;2023-04-28T01:45:58;10.90;99.90
22491;DHT22;11412;50.802;4.350;2023-04-28T01:48:24;10.90;99.90
22491;DHT22;11412;50.802;4.350;2023-04-28T01:50:50;10.90;99.90
22491;DHT22;11412;50.802;4.350;2023-04-28T01:53:15;11.00;99.90
22491;DHT22;11412;50.802;4.350;2023-04-28T01:55:45;11.20;99.90
22491;DHT22;11412;50.802;4.350;2023-04-28T01:58:11;11.10;99.90
22491;DHT22;11412;50.802;4.350;2023-04-28T02:00:37;11.10;99.90
22491;DHT22;11412;50.802;4.350;2023-04-28T02:03:03;11.10;99.90
22491;DHT22;11412;50.802;4.350;2023-04-28T02:05:28;11.20;99.90
22491;DHT22;11412;50.802;4.350;2023-04-28T02:07:54;11.20;99.90
22491;DHT22;11412;50.802;4.350;2023-04-28T02:10:20;11.20;99.90
22491;DHT22;11412;50.802;4.350;2023-04-28T02:12:46;11.20;99.90
22491;DHT22;11412;50.802;4.350;2023-04-28T02:15:11;11.30;99.90
22491;DHT22;11412;50.802;4.350;2023-04-28T02:17:37;11.20;99.90
22491;DHT22;11412;50.802;4.350;2023-04-28T02:20:03;11.40;99.90
22491;DHT22;11412;50.802;4.350;2023-04-28T02:22:29;11.40;99.90
22491;DHT22;11412;50.802;4.350;2023-04-28T02:24:55;11.50;99.90
22491;DHT22;11412;50.802;4.350;2023-04-28T02:27:21;11.40;99.90
22491;DHT22;11412;50.802;4.350;2023-04-28T02:29:47;11.40;99.90
22491;DHT22;11412;50.802;4.350;2023-04-28T02:32:13;11.40;99.90
22491;DHT22;11412;50.802;4.350;2023-04-28T02:34:39;11.50;99.90
22491;DHT22;11412;50.802;4.350;2023-04-28T02:37:04;11.60;99.90
22491;DHT22;11412;50.802;4.350;2023-04-28T02:39:30;11.70;99.90
22491;DHT22;11412;50.802;4.350;2023-04-28T02:41:57;11.70;99.90
22491;DHT22;11412;50.802;4.350;2023-04-28T02:44:23;11.80;99.90
22491;DHT22;11412;50.802;4.350;2023-04-28T02:46:48;11.80;99.90
22491;DHT22;11412;50.802;4.350;2023-04-28T02:49:14;11.80;99.90
22491;DHT22;11412;50.802;4.350;2023-04-28T02:51:40;11.80;99.90
22491;DHT22;11412;50.802;4.350;2023-04-28T02:54:06;11.80;99.90
22491;DHT22;11412;50.802;4.350;2023-04-28T02:56:32;11.80;99.90
22491;DHT22;11412;50.802;4.350;2023-04-28T02:58:58;11.80;99.90
22491;DHT22;11412;50.802;4.350;2023-04-28T03:01:24;11.80;99.90
22491;DHT22;11412;50.802;4.350;2023-04-28T03:03:50;11.80;99.90
22491;DHT22;11412;50.802;4.350;2023-04-28T03:06:16;11.70;99.90
22491;DHT22;11412;50.802;4.350;2023-04-28T03:08:41;11.90;99.90
22491;DHT22;11412;50.802;4.350;2023-04-28T03:11:07;11.90;99.90
22491;DHT22;11412;50.802;4.350;2023-04-28T03:13:33;11.80;99.90
22491;DHT22;11412;50.802;4.350;2023-04-28T03:16:00;11.90;99.90
22491;DHT22;11412;50.802;4.350;2023-04-28T03:18:26;11.90;99.90
22491;DHT22;11412;50.802;4.350;2023-04-28T03:20:51;12.00;99.90
22491;DHT22;11412;50.802;4.350;2023-04-28T03:23:17;12.20;99.90
22491;DHT22;11412;50.802;4.350;2023-04-28T03:25:43;12.20;99.90
22491;DHT22;11412;50.802;4.350;2023-04-28T03:28:08;12.30;99.90
22491;DHT22;11412;50.802;4.350;2023-04-28T03:30:35;12.30;99.90
22491;DHT22;11412;50.802;4.350;2023-04-28T03:33:00;12.10;99.90
22491;DHT22;11412;50.802;4.350;2023-04-28T03:35:26;12.10;99.90
22491;DHT22;11412;50.802;4.350;2023-04-28T03:37:52;12.10;99.90
22491;DHT22;11412;50.802;4.350;2023-04-28T03:40:18;11.90;99.90
22491;DHT22;11412;50.802;4.350;2023-04-28T03:42:44;12.00;99.90
22491;DHT22;11412;50.802;4.350;2023-04-28T03:45:10;12.00;99.90
22491;DHT22;11412;50.802;4.350;2023-04-28T03:47:35;11.90;99.90
22491;DHT22;11412;50.802;4.350;2023-04-28T03:50:01;11.90;99.90
22491;DHT22;11412;50.802;4.350;2023-04-28T03:52:27;11.80;99.90
22491;DHT22;11412;50.802;4.350;2023-04-28T03:54:53;11.80;99.90
22491;DHT22;11412;50.802;4.350;2023-04-28T03:57:18;11.80;99.90
22491;DHT22;11412;50.802;4.350;2023-04-28T03:59:44;11.90;99.90
22491;DHT22;11412;50.802;4.350;2023-04-28T04:02:10;11.90;99.90
22491;DHT22;11412;50.802;4.350;2023-04-28T04:04:36;11.80;99.90
22491;DHT22;11412;50.802;4.350;2023-04-28T04:07:02;11.80;99.90
22491;DHT22;11412;50.802;4.350;2023-04-28T04:09:28;11.90;99.90
22491;DHT22;11412;50.802;4.350;2023-04-28T04:11:54;11.90;99.90
22491;DHT22;11412;50.802;4.350;2023-04-28T04:14:20;11.90;99.90
22491;DHT22;11412;50.802;4.350;2023-04-28T04:16:46;12.00;99.90
22491;DHT22;11412;50.802;4.350;2023-04-28T04:19:14;12.00;99.90
22491;DHT22;11412;50.802;4.350;2023-04-28T04:21:40;12.00;99.90
22491;DHT22;11412;50.802;4.350;2023-04-28T04:24:06;12.10;99.90
22491;DHT22;11412;50.802;4.350;2023-04-28T04:26:32;12.10;99.90
22491;DHT22;11412;50.802;4.350;2023-04-28T04:28:58;12.20;99.90
22491;DHT22;11412;50.802;4.350;2023-04-28T04:31:23;12.30;99.90
22491;DHT22;11412;50.802;4.350;2023-04-28T04:33:49;12.40;99.90
22491;DHT22;11412;50.802;4.350;2023-04-28T04:36:16;12.40;99.90
22491;DHT22;11412;50.802;4.350;2023-04-28T04:38:41;12.50;99.90
22491;DHT22;11412;50.802;4.350;2023-04-28T04:41:07;12.50;99.90
22491;DHT22;11412;50.802;4.350;2023-04-28T04:43:33;12.50;99.90
22491;DHT22;11412;50.802;4.350;2023-04-28T04:45:58;12.60;99.90
22491;DHT22;11412;50.802;4.350;2023-04-28T04:48:24;12.60;99.90
22491;DHT22;11412;50.802;4.350;2023-04-28T04:50:50;12.70;99.90
22491;DHT22;11412;50.802;4.350;2023-04-28T04:53:16;12.70;99.90
22491;DHT22;11412;50.802;4.350;2023-04-28T04:55:41;12.80;99.90
22491;DHT22;11412;50.802;4.350;2023-04-28T04:58:07;12.90;99.90
22491;DHT22;11412;50.802;4.350;2023-04-28T05:00:33;12.90;99.90
22491;DHT22;11412;50.802;4.350;2023-04-28T05:02:59;13.10;99.90
22491;DHT22;11412;50.802;4.350;2023-04-28T05:05:25;13.30;99.90
22491;DHT22;11412;50.802;4.350;2023-04-28T05:07:50;13.40;99.90
22491;DHT22;11412;50.802;4.350;2023-04-28T05:10:16;13.50;99.90
22491;DHT22;11412;50.802;4.350;2023-04-28T05:12:42;13.60;99.90
22491;DHT22;11412;50.802;4.350;2023-04-28T05:15:09;13.60;99.90
22491;DHT22;11412;50.802;4.350;2023-04-28T05:17:35;13.60;99.90
22491;DHT22;11412;50.802;4.350;2023-04-28T05:20:02;13.80;99.90
22491;DHT22;11412;50.802;4.350;2023-04-28T05:22:27;13.90;99.90
22491;DHT22;11412;50.802;4.350;2023-04-28T05:24:55;14.20;99.90
22491;DHT22;11412;50.802;4.350;2023-04-28T05:27:21;14.40;99.90
22491;DHT22;11412;50.802;4.350;2023-04-28T05:29:46;14.40;99.90
22491;DHT22;11412;50.802;4.350;2023-04-28T05:32:12;14.50;99.90
22491;DHT22;11412;50.802;4.350;2023-04-28T05:34:38;14.30;99.90
22491;DHT22;11412;50.802;4.350;2023-04-28T05:37:04;14.30;99.90
22491;DHT22;11412;50.802;4.350;2023-04-28T05:39:29;14.10;99.90
22491;DHT22;11412;50.802;4.350;2023-04-28T05:41:55;14.10;99.90
22491;DHT22;11412;50.802;4.350;2023-04-28T05:44:23;14.10;99.90
22491;DHT22;11412;50.802;4.350;2023-04-28T05:46:48;14.20;99.90
22491;DHT22;11412;50.802;4.350;2023-04-28T05:49:14;14.30;99.90
22491;DHT22;11412;50.802;4.350;2023-04-28T05:51:40;14.30;99.90
22491;DHT22;11412;50.802;4.350;2023-04-28T05:54:06;14.10;99.90
22491;DHT22;11412;50.802;4.350;2023-04-28T05:56:32;14.10;99.90
22491;DHT22;11412;50.802;4.350;2023-04-28T05:58:57;14.20;99.90
22491;DHT22;11412;50.802;4.350;2023-04-28T06:01:25;14.20;99.90
22491;DHT22;11412;50.802;4.350;2023-04-28T06:03:51;14.20;99.90
22491;DHT22;11412;50.802;4.350;2023-04-28T06:06:18;14.30;99.90
22491;DHT22;11412;50.802;4.350;2023-04-28T06:08:43;14.30;99.90
22491;DHT22;11412;50.802;4.350;2023-04-28T06:11:10;14.30;99.90
22491;DHT22;11412;50.802;4.350;2023-04-28T06:13:36;14.30;99.90
22491;DHT22;11412;50.802;4.350;2023-04-28T06:16:02;14.40;99.90
22491;DHT22;11412;50.802;4.350;2023-04-28T06:18:29;14.30;99.90
22491;DHT22;11412;50.802;4.350;2023-04-28T06:20:57;14.30;99.90
22491;DHT22;11412;50.802;4.350;2023-04-28T06:23:22;14.30;99.90
22491;DHT22;11412;50.802;4.350;2023-04-28T06:25:48;14.40;99.90
22491;DHT22;11412;50.802;4.350;2023-04-28T06:28:14;14.40;99.90
22491;DHT22;11412;50.802;4.350;2023-04-28T06:30:40;14.50;99.90
22491;DHT22;11412;50.802;4.350;2023-04-28T06:33:05;14.40;99.90
22491;DHT22;11412;50.802;4.350;2023-04-28T06:35:32;14.50;99.90
22491;DHT22;11412;50.802;4.350;2023-04-28T06:38:01;14.50;99.90
22491;DHT22;11412;50.802;4.350;2023-04-28T06:40:27;14.60;99.90
22491;DHT22;11412;50.802;4.350;2023-04-28T06:42:53;14.50;99.90
22491;DHT22;11412;50.802;4.350;2023-04-28T06:45:19;14.50;99.90
22491;DHT22;11412;50.802;4.350;2023-04-28T06:47:45;14.50;99.90
22491;DHT22;11412;50.802;4.350;2023-04-28T06:50:10;14.40;99.90
22491;DHT22;11412;50.802;4.350;2023-04-28T06:52:36;14.60;99.90
22491;DHT22;11412;50.802;4.350;2023-04-28T06:55:07;14.60;99.90
22491;DHT22;11412;50.802;4.350;2023-04-28T06:57:34;14.60;99.90
22491;DHT22;11412;50.802;4.350;2023-04-28T07:00:00;14.70;99.90
22491;DHT22;11412;50.802;4.350;2023-04-28T07:02:25;14.80;99.90
22491;DHT22;11412;50.802;4.350;2023-04-28T07:04:51;14.70;99.90
22491;DHT22;11412;50.802;4.350;2023-04-28T07:07:17;14.70;99.90
22491;DHT22;11412;50.802;4.350;2023-04-28T07:09:43;14.70;99.90
22491;DHT22;11412;50.802;4.350;2023-04-28T07:12:08;14.70;99.90
22491;DHT22;11412;50.802;4.350;2023-04-28T07:14:34;14.80;99.90
22491;DHT22;11412;50.802;4.350;2023-04-28T07:17:00;14.80;99.90
22491;DHT22;11412;50.802;4.350;2023-04-28T07:19:26;14.70;99.90
22491;DHT22;11412;50.802;4.350;2023-04-28T07:21:51;14.80;99.90
22491;DHT22;11412;50.802;4.350;2023-04-28T07:24:17;14.80;99.90
22491;DHT22;11412;50.802;4.350;2023-04-28T07:26:43;14.80;99.90
22491;DHT22;11412;50.802;4.350;2023-04-28T07:29:08;14.80;99.90
22491;DHT22;11412;50.802;4.350;2023-04-28T07:31:37;14.70;99.90
22491;DHT22;11412;50.802;4.350;2023-04-28T07:34:03;14.80;99.90
22491;DHT22;11412;50.802;4.350;2023-04-28T07:36:29;14.90;99.90
22491;DHT22;11412;50.802;4.350;2023-04-28T07:38:55;15.10;99.90
22491;DHT22;11412;50.802;4.350;2023-04-28T07:41:21;15.20;99.90
22491;DHT22;11412;50.802;4.350;2023-04-28T07:43:48;15.20;99.90
22491;DHT22;11412;50.802;4.350;2023-04-28T07:46:13;15.40;99.90
22491;DHT22;11412;50.802;4.350;2023-04-28T07:48:39;15.60;99.90
22491;DHT22;11412;50.802;4.350;2023-04-28T07:51:05;15.70;99.90
22491;DHT22;11412;50.802;4.350;2023-04-28T07:53:31;15.90;99.90
22491;DHT22;11412;50.802;4.350;2023-04-28T07:55:57;16.20;99.90
22491;DHT22;11412;50.802;4.350;2023-04-28T07:58:22;16.20;99.90
22491;DHT22;11412;50.802;4.350;2023-04-28T08:00:48;16.20;99.90
22491;DHT22;11412;50.802;4.350;2023-04-28T08:03:14;16.10;99.90
22491;DHT22;11412;50.802;4.350;2023-04-28T08:05:40;16.40;99.90
22491;DHT22;11412;50.802;4.350;2023-04-28T08:08:06;16.40;99.90
22491;DHT22;11412;50.802;4.350;2023-04-28T08:10:32;16.60;99.90
22491;DHT22;11412;50.802;4.350;2023-04-28T08:12:57;16.80;99.90
22491;DHT22;11412;50.802;4.350;2023-04-28T08:15:23;16.50;99.90
22491;DHT22;11412;50.802;4.350;2023-04-28T08:17:50;16.20;99.90
22491;DHT22;11412;50.802;4.350;2023-04-28T08:20:16;16.10;99.90
22491;DHT22;11412;50.802;4.350;2023-04-28T08:22:44;16.10;99.90
22491;DHT22;11412;50.802;4.350;2023-04-28T08:25:10;16.10;99.90
22491;DHT22;11412;50.802;4.350;2023-04-28T08:27:36;16.20;99.90
22491;DHT22;11412;50.802;4.350;2023-04-28T08:30:03;16.20;99.90
22491;DHT22;11412;50.802;4.350;2023-04-28T08:32:29;16.10;99.90
22491;DHT22;11412;50.802;4.350;2023-04-28T08:34:54;16.10;99.90
22491;DHT22;11412;50.802;4.350;2023-04-28T08:37:20;16.00;99.90
22491;DHT22;11412;50.802;4.350;2023-04-28T08:39:46;16.00;99.90
22491;DHT22;11412;50.802;4.350;2023-04-28T08:42:12;16.00;99.90
22491;DHT22;11412;50.802;4.350;2023-04-28T08:44:38;15.90;99.90
22491;DHT22;11412;50.802;4.350;2023-04-28T08:47:11;15.90;99.90
22491;DHT22;11412;50.802;4.350;2023-04-28T08:49:38;16.00;99.90
22491;DHT22;11412;50.802;4.350;2023-04-28T08:52:10;16.00;99.90
22491;DHT22;11412;50.802;4.350;2023-04-28T08:54:37;15.90;99.90
22491;DHT22;11412;50.802;4.350;2023-04-28T08:57:04;15.80;99.90
22491;DHT22;11412;50.802;4.350;2023-04-28T08:59:32;15.80;99.90
22491;DHT22;11412;50.802;4.350;2023-04-28T09:01:58;15.70;99.90
22491;DHT22;11412;50.802;4.350;2023-04-28T09:04:24;15.80;99.90
22491;DHT22;11412;50.802;4.350;2023-04-28T09:06:50;15.70;99.90
22491;DHT22;11412;50.802;4.350;2023-04-28T09:09:25;15.90;99.90
22491;DHT22;11412;50.802;4.350;2023-04-28T09:11:59;16.10;99.90
22491;DHT22;11412;50.802;4.350;2023-04-28T09:14:26;16.00;99.90
22491;DHT22;11412;50.802;4.350;2023-04-28T09:16:52;16.10;99.90
22491;DHT22;11412;50.802;4.350;2023-04-28T09:19:19;16.40;99.90
22491;DHT22;11412;50.802;4.350;2023-04-28T09:24:39;16.90;99.90
22491;DHT22;11412;50.802;4.350;2023-04-28T09:27:07;17.20;99.90
22491;DHT22;11412;50.802;4.350;2023-04-28T09:29:35;17.40;99.90
22491;DHT22;11412;50.802;4.350;2023-04-28T09:32:20;17.60;99.90
22491;DHT22;11412;50.802;4.350;2023-04-28T09:34:53;17.40;99.90
22491;DHT22;11412;50.802;4.350;2023-04-28T09:37:22;17.30;99.90
22491;DHT22;11412;50.802;4.350;2023-04-28T09:39:50;17.20;99.90
22491;DHT22;11412;50.802;4.350;2023-04-28T09:42:43;17.10;99.90
22491;DHT22;11412;50.802;4.350;2023-04-28T09:45:14;17.40;99.90
22491;DHT22;11412;50.802;4.350;2023-04-28T09:47:42;17.50;99.90
22491;DHT22;11412;50.802;4.350;2023-04-28T09:50:09;17.40;99.90
22491;DHT22;11412;50.802;4.350;2023-04-28T09:52:37;17.40;99.90
22491;DHT22;11412;50.802;4.350;2023-04-28T09:55:04;17.50;99.90
22491;DHT22;11412;50.802;4.350;2023-04-28T09:57:32;17.50;99.90
22491;DHT22;11412;50.802;4.350;2023-04-28T09:59:59;17.20;99.90
22491;DHT22;11412;50.802;4.350;2023-04-28T10:02:25;17.10;99.90
22491;DHT22;11412;50.802;4.350;2023-04-28T10:04:51;17.40;99.90
22491;DHT22;11412;50.802;4.350;2023-04-28T10:07:19;17.80;99.90
22491;DHT22;11412;50.802;4.350;2023-04-28T10:09:49;18.00;99.90
22491;DHT22;11412;50.802;4.350;2023-04-28T10:12:22;18.10;99.90
22491;DHT22;11412;50.802;4.350;2023-04-28T10:14:50;18.00;99.90
22491;DHT22;11412;50.802;4.350;2023-04-28T10:17:19;17.90;99.90
22491;DHT22;11412;50.802;4.350;2023-04-28T10:19:47;18.00;99.90
22491;DHT22;11412;50.802;4.350;2023-04-28T10:27:34;19.20;99.90
22491;DHT22;11412;50.802;4.350;2023-04-28T10:30:14;19.10;99.90
22491;DHT22;11412;50.802;4.350;2023-04-28T10:32:40;18.90;99.90
22491;DHT22;11412;50.802;4.350;2023-04-28T10:38:17;18.60;99.90
22491;DHT22;11412;50.802;4.350;2023-04-28T10:40:51;18.50;99.90
22491;DHT22;11412;50.802;4.350;2023-04-28T10:58:39;17.60;99.90
22491;DHT22;11412;50.802;4.350;2023-04-28T11:06:39;17.70;99.90
22491;DHT22;11412;50.802;4.350;2023-04-28T11:11:39;17.70;99.90
22491;DHT22;11412;50.802;4.350;2023-04-28T11:16:54;17.80;99.90
22491;DHT22;11412;50.802;4.350;2023-04-28T11:19:25;17.60;99.90
22491;DHT22;11412;50.802;4.350;2023-04-28T11:21:53;17.70;99.90
22491;DHT22;11412;50.802;4.350;2023-04-28T11:24:21;17.60;99.90
22491;DHT22;11412;50.802;4.350;2023-04-28T11:26:47;17.50;99.90
22491;DHT22;11412;50.802;4.350;2023-04-28T11:29:13;17.50;99.90
22491;DHT22;11412;50.802;4.350;2023-04-28T11:31:40;17.30;99.90
22491;DHT22;11412;50.802;4.350;2023-04-28T11:34:18;17.30;99.90
22491;DHT22;11412;50.802;4.350;2023-04-28T11:36:44;17.20;99.90
22491;DHT22;11412;50.802;4.350;2023-04-28T11:39:12;17.10;99.90
22491;DHT22;11412;50.802;4.350;2023-04-28T11:41:39;17.00;99.90
22491;DHT22;11412;50.802;4.350;2023-04-28T11:44:17;16.80;99.90
22491;DHT22;11412;50.802;4.350;2023-04-28T11:46:51;16.70;99.90
22491;DHT22;11412;50.802;4.350;2023-04-28T11:49:21;16.60;99.90
22491;DHT22;11412;50.802;4.350;2023-04-28T11:51:50;16.70;99.90
22491;DHT22;11412;50.802;4.350;2023-04-28T11:54:23;16.60;99.90
22491;DHT22;11412;50.802;4.350;2023-04-28T11:56:50;16.60;99.90
22491;DHT22;11412;50.802;4.350;2023-04-28T11:59:16;16.70;99.90
22491;DHT22;11412;50.802;4.350;2023-04-28T12:01:53;16.80;99.90
22491;DHT22;11412;50.802;4.350;2023-04-28T12:09:44;17.10;99.90
22491;DHT22;11412;50.802;4.350;2023-04-28T12:12:26;17.10;99.90
22491;DHT22;11412;50.802;4.350;2023-04-28T12:17:36;16.80;99.90
22491;DHT22;11412;50.802;4.350;2023-04-28T12:20:07;16.70;99.90
22491;DHT22;11412;50.802;4.350;2023-04-28T12:22:47;16.80;99.90
22491;DHT22;11412;50.802;4.350;2023-04-28T12:25:15;16.90;99.90
22491;DHT22;11412;50.802;4.350;2023-04-28T12:27:58;16.90;99.90
22491;DHT22;11412;50.802;4.350;2023-04-28T12:30:25;16.80;99.90
22491;DHT22;11412;50.802;4.350;2023-04-28T12:32:51;17.00;99.90
22491;DHT22;11412;50.802;4.350;2023-04-28T12:35:23;16.90;99.90
22491;DHT22;11412;50.802;4.350;2023-04-28T12:37:50;17.10;99.90
22491;DHT22;11412;50.802;4.350;2023-04-28T12:40:16;17.20;99.90
22491;DHT22;11412;50.802;4.350;2023-04-28T12:42:42;17.10;99.90
22491;DHT22;11412;50.802;4.350;2023-04-28T12:45:08;16.80;99.90
22491;DHT22;11412;50.802;4.350;2023-04-28T12:47:35;17.00;99.90
22491;DHT22;11412;50.802;4.350;2023-04-28T12:50:01;17.20;99.90
22491;DHT22;11412;50.802;4.350;2023-04-28T12:52:26;17.30;99.90
22491;DHT22;11412;50.802;4.350;2023-04-28T12:54:52;17.20;99.90
22491;DHT22;11412;50.802;4.350;2023-04-28T12:57:18;17.20;99.90
22491;DHT22;11412;50.802;4.350;2023-04-28T12:59:45;17.10;99.90
22491;DHT22;11412;50.802;4.350;2023-04-28T13:02:12;17.10;99.90
22491;DHT22;11412;50.802;4.350;2023-04-28T13:04:39;17.10;99.90
22491;DHT22;11412;50.802;4.350;2023-04-28T13:07:07;16.90;99.90
22491;DHT22;11412;50.802;4.350;2023-04-28T13:09:33;16.80;99.90
22491;DHT22;11412;50.802;4.350;2023-04-28T13:11:59;16.90;99.90
22491;DHT22;11412;50.802;4.350;2023-04-28T13:14:25;16.80;99.90
22491;DHT22;11412;50.802;4.350;2023-04-28T13:16:52;16.70;99.90
22491;DHT22;11412;50.802;4.350;2023-04-28T13:19:20;16.60;99.90
22491;DHT22;11412;50.802;4.350;2023-04-28T13:21:46;16.40;99.90
22491;DHT22;11412;50.802;4.350;2023-04-28T13:24:12;16.60;99.90
22491;DHT22;11412;50.802;4.350;2023-04-28T13:26:39;16.60;99.90
22491;DHT22;11412;50.802;4.350;2023-04-28T13:29:05;16.30;99.90
22491;DHT22;11412;50.802;4.350;2023-04-28T13:31:33;16.30;99.90
22491;DHT22;11412;50.802;4.350;2023-04-28T13:33:59;16.30;99.90
22491;DHT22;11412;50.802;4.350;2023-04-28T13:36:27;16.50;99.90
22491;DHT22;11412;50.802;4.350;2023-04-28T13:38:54;16.30;99.90
22491;DHT22;11412;50.802;4.350;2023-04-28T13:41:22;16.20;99.90
22491;DHT22;11412;50.802;4.350;2023-04-28T13:43:48;16.20;99.90
22491;DHT22;11412;50.802;4.350;2023-04-28T13:46:13;16.20;99.90
22491;DHT22;11412;50.802;4.350;2023-04-28T13:48:39;16.30;99.90
22491;DHT22;11412;50.802;4.350;2023-04-28T13:51:06;16.30;99.90
22491;DHT22;11412;50.802;4.350;2023-04-28T13:53:34;16.30;99.90
22491;DHT22;11412;50.802;4.350;2023-04-28T13:56:00;16.20;99.90
22491;DHT22;11412;50.802;4.350;2023-04-28T13:58:27;16.10;99.90
22491;DHT22;11412;50.802;4.350;2023-04-28T14:00:53;16.00;99.90
22491;DHT22;11412;50.802;4.350;2023-04-28T14:03:20;16.10;99.90
22491;DHT22;11412;50.802;4.350;2023-04-28T14:05:55;16.10;99.90
22491;DHT22;11412;50.802;4.350;2023-04-28T14:08:21;16.30;99.90
22491;DHT22;11412;50.802;4.350;2023-04-28T14:10:48;16.40;99.90
22491;DHT22;11412;50.802;4.350;2023-04-28T14:13:14;16.40;99.90
22491;DHT22;11412;50.802;4.350;2023-04-28T14:15:40;16.40;99.90
22491;DHT22;11412;50.802;4.350;2023-04-28T14:18:06;16.30;99.90
22491;DHT22;11412;50.802;4.350;2023-04-28T14:20:34;16.30;99.90
22491;DHT22;11412;50.802;4.350;2023-04-28T14:23:00;16.40;99.90
22491;DHT22;11412;50.802;4.350;2023-04-28T14:25:26;16.40;99.90
22491;DHT22;11412;50.802;4.350;2023-04-28T14:27:52;16.30;99.90
22491;DHT22;11412;50.802;4.350;2023-04-28T14:30:18;16.30;99.90
22491;DHT22;11412;50.802;4.350;2023-04-28T14:32:44;16.40;99.90
22491;DHT22;11412;50.802;4.350;2023-04-28T14:35:11;16.40;99.90
22491;DHT22;11412;50.802;4.350;2023-04-28T14:37:37;16.60;99.90
22491;DHT22;11412;50.802;4.350;2023-04-28T14:40:03;16.70;99.90
22491;DHT22;11412;50.802;4.350;2023-04-28T14:42:32;16.60;99.90
22491;DHT22;11412;50.802;4.350;2023-04-28T14:45:03;16.60;99.90
22491;DHT22;11412;50.802;4.350;2023-04-28T14:47:29;16.80;99.90
22491;DHT22;11412;50.802;4.350;2023-04-28T14:49:55;16.90;99.90
22491;DHT22;11412;50.802;4.350;2023-04-28T14:52:22;17.10;99.90
22491;DHT22;11412;50.802;4.350;2023-04-28T14:54:52;17.20;99.90
22491;DHT22;11412;50.802;4.350;2023-04-28T14:57:18;17.20;99.90
22491;DHT22;11412;50.802;4.350;2023-04-28T14:59:44;17.40;99.90
22491;DHT22;11412;50.802;4.350;2023-04-28T15:02:11;17.50;99.90
22491;DHT22;11412;50.802;4.350;2023-04-28T15:04:38;17.60;99.90
22491;DHT22;11412;50.802;4.350;2023-04-28T15:07:04;17.80;99.90
22491;DHT22;11412;50.802;4.350;2023-04-28T15:09:30;17.80;99.90
22491;DHT22;11412;50.802;4.350;2023-04-28T15:11:56;17.50;99.90
22491;DHT22;11412;50.802;4.350;2023-04-28T15:14:22;17.40;99.90
22491;DHT22;11412;50.802;4.350;2023-04-28T15:16:47;17.30;99.90
22491;DHT22;11412;50.802;4.350;2023-04-28T15:19:13;17.40;99.90
22491;DHT22;11412;50.802;4.350;2023-04-28T15:21:40;17.40;99.90
22491;DHT22;11412;50.802;4.350;2023-04-28T15:24:06;17.40;99.90
22491;DHT22;11412;50.802;4.350;2023-04-28T15:26:32;17.40;99.90
22491;DHT22;11412;50.802;4.350;2023-04-28T15:28:58;17.60;99.90
22491;DHT22;11412;50.802;4.350;2023-04-28T15:31:25;17.90;99.90
22491;DHT22;11412;50.802;4.350;2023-04-28T15:33:52;18.00;99.90
22491;DHT22;11412;50.802;4.350;2023-04-28T15:36:18;18.00;99.90
22491;DHT22;11412;50.802;4.350;2023-04-28T15:38:48;18.10;99.90
22491;DHT22;11412;50.802;4.350;2023-04-28T15:41:16;17.80;99.90
22491;DHT22;11412;50.802;4.350;2023-04-28T15:43:42;17.80;99.90
22491;DHT22;11412;50.802;4.350;2023-04-28T15:46:09;17.70;99.90
22491;DHT22;11412;50.802;4.350;2023-04-28T15:48:39;17.60;99.90
22491;DHT22;11412;50.802;4.350;2023-04-28T15:51:05;17.40;99.90
22491;DHT22;11412;50.802;4.350;2023-04-28T15:53:31;17.20;99.90
22491;DHT22;11412;50.802;4.350;2023-04-28T15:55:57;17.20;99.90
22491;DHT22;11412;50.802;4.350;2023-04-28T15:58:23;17.10;99.90
22491;DHT22;11412;50.802;4.350;2023-04-28T16:00:49;17.00;99.90
22491;DHT22;11412;50.802;4.350;2023-04-28T16:03:16;16.80;99.90
22491;DHT22;11412;50.802;4.350;2023-04-28T16:05:41;16.60;99.90
22491;DHT22;11412;50.802;4.350;2023-04-28T16:08:07;16.50;99.90
22491;DHT22;11412;50.802;4.350;2023-04-28T16:10:34;16.50;99.90
22491;DHT22;11412;50.802;4.350;2023-04-28T16:12:59;16.50;99.90